createdAt,value
2022-10-05T00:04:20.506Z,69.70
2022-10-05T00:07:53.306Z,72.30
2022-10-05T00:15:02.064Z,85.10
2022-10-05T00:18:43.399Z,85.70
2022-10-05T00:44:51.101Z,64.70
2022-10-05T00:48:07.836Z,74.00
2022-10-05T00:55:49.600Z,72.10
2022-10-05T01:00:07.983Z,72.80
2022-10-05T01:04:21.104Z,65.70
2022-10-05T01:29:24.381Z,51.60
2022-10-05T01:34:25.911Z,44.00
2022-10-05T01:36:53.618Z,49.80
2022-10-05T01:40:56.104Z,49.00
2022-10-05T01:43:57.788Z,49.90
2022-10-05T01:47:07.874Z,43.40
2022-10-05T01:53:03.043Z,36.60
2022-10-05T01:56:08.279Z,28.50
2022-10-05T01:59:03.251Z,35.10
2022-10-05T02:02:18.682Z,39.40
2022-10-05T02:05:30.025Z,23.00
2022-10-05T02:09:17.647Z,17.80
2022-10-05T02:12:30.374Z,19.20
2022-10-05T02:15:34.967Z,18.40
2022-10-05T02:18:38.568Z,17.20
2022-10-05T02:21:24.170Z,15.80
2022-10-05T02:24:03.482Z,16.50
2022-10-05T02:26:45.435Z,14.70
2022-10-05T02:29:27.093Z,14.60
2022-10-05T02:33:01.201Z,14.10
2022-10-05T02:36:02.159Z,14.70
2022-10-05T02:39:05.512Z,14.60
2022-10-05T02:42:24.868Z,13.80
2022-10-05T02:51:49.872Z,13.80
2022-10-05T02:53:55.728Z,13.70
2022-10-05T02:57:19.539Z,13.30
2022-10-05T03:00:23.603Z,13.30
2022-10-05T03:05:16.633Z,13.10
2022-10-05T03:09:23.238Z,14.00
2022-10-05T03:13:36.305Z,13.90
2022-10-05T03:16:39.485Z,14.10
2022-10-05T03:20:47.668Z,12.70
2022-10-05T03:26:11.255Z,12.80
2022-10-05T03:49:35.624Z,14.70
2022-10-05T03:58:27.921Z,17.40
2022-10-05T04:39:58.505Z,24.90
2022-10-05T04:44:04.349Z,30.20
2022-10-05T04:47:43.300Z,38.00
2022-10-05T04:51:05.138Z,46.50
2022-10-05T04:54:04.388Z,65.90
2022-10-05T04:57:44.137Z,56.20
2022-10-05T05:00:31.327Z,39.70
2022-10-05T05:04:21.691Z,34.90
2022-10-05T05:07:45.525Z,27.80
2022-10-05T05:11:26.723Z,39.50
2022-10-05T05:14:44.745Z,44.80
2022-10-05T05:17:38.729Z,33.20
2022-10-05T05:24:37.285Z,30.50
2022-10-05T05:27:46.387Z,20.50
2022-10-05T05:30:46.503Z,19.80
2022-10-05T05:33:36.410Z,18.50
2022-10-05T05:36:28.480Z,20.20
2022-10-05T05:39:22.999Z,18.80
2022-10-05T05:42:26.970Z,18.30
2022-10-05T05:45:31.426Z,19.10
2022-10-05T05:48:21.556Z,17.20
2022-10-05T05:51:38.935Z,15.60
2022-10-05T05:54:16.387Z,18.00
2022-10-05T05:57:17.141Z,16.80
2022-10-05T06:00:25.178Z,15.90
2022-10-05T06:03:32.191Z,14.90
2022-10-05T06:06:12.633Z,16.40
2022-10-05T06:08:51.681Z,17.00
2022-10-05T06:12:08.049Z,15.70
2022-10-05T06:15:46.781Z,15.30
2022-10-05T06:19:17.173Z,16.10
2022-10-05T06:26:09.830Z,15.80
2022-10-05T06:29:25.149Z,15.20
2022-10-05T06:34:51.988Z,17.40
2022-10-05T06:37:24.673Z,22.90
2022-10-05T06:44:54.839Z,33.90
2022-10-05T06:54:26.336Z,30.30
2022-10-05T06:58:32.494Z,25.90
2022-10-05T07:02:49.254Z,23.70
2022-10-05T07:06:49.060Z,23.60
2022-10-05T07:44:01.698Z,10.50
2022-10-05T07:47:17.297Z,10.20
2022-10-05T07:50:10.710Z,13.70
2022-10-05T07:54:13.280Z,15.40
2022-10-05T07:57:45.012Z,16.40
2022-10-05T08:01:32.610Z,17.50
2022-10-05T08:05:06.433Z,11.80
2022-10-05T08:08:58.449Z,9.10
2022-10-05T08:11:59.802Z,12.80
2022-10-05T08:15:09.001Z,13.80
2022-10-05T08:21:06.467Z,6.60
2022-10-05T08:27:11.782Z,6.20
2022-10-05T08:29:53.222Z,7.10
2022-10-05T08:33:03.427Z,6.20
2022-10-05T08:36:17.031Z,4.60
2022-10-05T08:38:50.660Z,4.90
2022-10-05T08:42:05.325Z,5.10
2022-10-05T08:45:22.350Z,4.80
2022-10-05T08:48:54.737Z,4.60
2022-10-05T08:51:49.782Z,4.10
2022-10-05T08:54:36.778Z,4.50
2022-10-05T08:57:43.825Z,4.30
2022-10-05T09:00:24.330Z,4.80
2022-10-05T09:04:04.142Z,4.30
2022-10-05T09:07:01.882Z,5.20
2022-10-05T09:10:01.549Z,4.20
2022-10-05T09:13:06.987Z,4.50
2022-10-05T09:16:47.065Z,3.80
2022-10-05T09:25:52.304Z,3.90
2022-10-05T09:28:00.811Z,5.50
2022-10-05T09:35:31.672Z,10.80
2022-10-05T09:39:23.643Z,4.50
2022-10-05T09:44:44.170Z,3.50
2022-10-05T10:10:11.573Z,3.40
2022-10-05T10:23:15.255Z,2.70
2022-10-05T10:25:52.320Z,3.40
2022-10-05T10:36:36.988Z,3.30
2022-10-05T10:44:49.979Z,4.30
2022-10-05T11:00:48.102Z,2.80
2022-10-05T11:29:03.022Z,3.60
2022-10-05T11:37:57.508Z,2.80
2022-10-05T11:41:24.533Z,3.00
2022-10-05T11:49:33.413Z,2.10
2022-10-05T11:53:16.122Z,2.80
2022-10-05T12:14:13.118Z,2.50
2022-10-05T12:18:13.478Z,2.50
2022-10-05T12:22:12.289Z,2.40
2022-10-05T12:25:33.427Z,2.90
2022-10-05T13:09:44.026Z,3.00
2022-10-05T13:12:58.944Z,3.60
2022-10-05T13:16:44.145Z,3.40
2022-10-05T13:20:06.451Z,3.10
2022-10-05T13:23:50.775Z,2.90
2022-10-05T13:27:06.012Z,2.70
2022-10-05T13:31:45.917Z,3.40
2022-10-05T13:33:51.174Z,3.30
2022-10-05T13:44:49.522Z,3.40
2022-10-05T13:54:12.581Z,3.10
2022-10-05T14:12:32.142Z,3.00
2022-10-05T14:19:26.279Z,3.70
2022-10-05T14:23:13.206Z,3.70
2022-10-05T14:49:25.883Z,4.30
2022-10-05T14:52:52.087Z,4.20
2022-10-05T14:55:51.149Z,3.40
2022-10-05T14:58:49.793Z,5.10
2022-10-05T15:02:19.511Z,5.80
2022-10-05T15:06:01.269Z,5.40
2022-10-05T15:11:11.847Z,4.30
2022-10-05T15:14:29.788Z,5.40
2022-10-05T15:21:09.522Z,6.00
2022-10-05T15:24:00.972Z,6.80
2022-10-05T15:27:26.436Z,6.70
2022-10-05T15:30:15.720Z,6.90
2022-10-05T15:33:10.726Z,7.70
2022-10-05T15:36:04.477Z,6.70
2022-10-05T15:38:50.402Z,6.30
2022-10-05T15:41:45.898Z,6.00
2022-10-05T15:44:36.658Z,6.50
2022-10-05T15:47:22.680Z,8.10
2022-10-05T15:50:26.524Z,7.30
2022-10-05T15:53:10.466Z,7.50
2022-10-05T15:55:53.342Z,7.30
2022-10-05T15:58:54.584Z,8.40
2022-10-05T16:01:51.811Z,6.90
2022-10-05T16:04:39.941Z,7.70
2022-10-05T16:07:45.868Z,10.50
2022-10-05T16:10:24.424Z,9.40
2022-10-05T16:13:35.008Z,8.40
2022-10-05T16:16:37.682Z,9.20
2022-10-05T16:19:28.757Z,12.00
2022-10-05T16:22:43.356Z,16.70
2022-10-05T16:25:26.169Z,17.50
2022-10-05T16:28:11.865Z,16.40
2022-10-05T16:31:02.037Z,15.10
2022-10-05T16:34:19.456Z,15.60
2022-10-05T16:36:59.467Z,14.70
2022-10-05T16:39:50.256Z,12.20
2022-10-05T16:42:35.161Z,13.50
2022-10-05T16:45:47.550Z,11.30
2022-10-05T16:48:28.353Z,11.00
2022-10-05T16:51:30.933Z,15.30
2022-10-05T16:54:21.019Z,9.80
2022-10-05T16:56:57.236Z,10.00
2022-10-05T16:59:48.229Z,12.20
2022-10-05T17:03:18.105Z,11.40
2022-10-05T17:06:04.057Z,11.30
2022-10-05T17:09:16.845Z,11.10
2022-10-05T17:12:15.611Z,10.70
2022-10-05T17:15:00.934Z,10.90
2022-10-05T17:18:04.293Z,11.30
2022-10-05T17:20:42.577Z,10.60
2022-10-05T17:23:58.643Z,10.40
2022-10-05T17:27:15.619Z,13.30
2022-10-05T17:29:55.353Z,12.20
2022-10-05T17:32:47.062Z,11.20
2022-10-05T17:35:41.055Z,11.20
2022-10-05T17:38:58.794Z,14.90
2022-10-05T17:41:37.435Z,12.20
2022-10-05T17:44:19.266Z,14.00
2022-10-05T17:46:58.746Z,15.10
2022-10-05T17:50:15.149Z,15.80
2022-10-05T17:53:04.883Z,12.50
2022-10-05T17:55:34.411Z,11.80
2022-10-05T17:58:27.697Z,11.80
2022-10-05T18:00:57.647Z,11.90
2022-10-05T18:03:51.773Z,12.70
2022-10-05T18:06:35.994Z,13.50
2022-10-05T18:09:48.678Z,13.60
2022-10-05T18:12:25.064Z,15.20
2022-10-05T18:15:25.903Z,15.40
2022-10-05T18:18:59.713Z,14.50
2022-10-05T18:22:29.783Z,17.70
2022-10-05T18:25:55.498Z,17.90
2022-10-05T18:28:48.990Z,17.90
2022-10-05T18:32:01.607Z,15.40
2022-10-05T18:40:09.580Z,15.60
2022-10-05T18:43:14.723Z,15.00
2022-10-05T18:46:29.129Z,15.00
2022-10-05T18:50:01.702Z,13.80
2022-10-05T18:53:01.693Z,15.40
2022-10-05T18:56:21.867Z,15.60
2022-10-05T18:59:21.320Z,16.60
2022-10-05T19:02:18.962Z,16.00
2022-10-05T19:05:46.827Z,19.00
2022-10-05T19:09:17.510Z,23.90
2022-10-05T19:11:49.901Z,19.90
2022-10-05T19:14:51.983Z,20.30
2022-10-05T19:20:13.892Z,20.50
2022-10-05T19:23:35.621Z,18.00
2022-10-05T19:26:42.206Z,15.40
2022-10-05T19:29:49.616Z,17.80
2022-10-05T19:32:46.410Z,16.50
2022-10-05T19:35:55.194Z,16.00
2022-10-05T19:38:56.948Z,14.60
2022-10-05T19:42:15.716Z,13.70
2022-10-05T19:45:16.937Z,14.00
2022-10-05T19:47:55.162Z,14.00
2022-10-05T19:50:48.683Z,15.20
2022-10-05T19:53:27.376Z,14.50
2022-10-05T19:56:18.964Z,14.40
2022-10-05T19:59:01.448Z,15.20
2022-10-05T20:01:35.699Z,12.80
2022-10-05T20:04:10.730Z,12.90
2022-10-05T20:06:41.947Z,12.10
2022-10-05T20:09:22.521Z,13.20
2022-10-05T20:11:54.314Z,12.70
2022-10-05T20:17:48.976Z,13.10
2022-10-05T20:20:42.332Z,12.10
2022-10-05T20:23:28.175Z,12.00
2022-10-05T20:26:18.023Z,13.10
2022-10-05T20:28:47.915Z,16.90
2022-10-05T20:31:20.252Z,17.00
2022-10-05T20:33:54.702Z,15.70
2022-10-05T20:36:24.150Z,15.70
2022-10-05T20:38:56.030Z,22.90
2022-10-05T20:41:25.125Z,16.90
2022-10-05T20:44:08.451Z,16.10
2022-10-05T20:46:46.890Z,16.00
2022-10-05T20:49:20.526Z,26.30
2022-10-05T20:51:56.170Z,28.20
2022-10-05T20:54:27.735Z,20.10
2022-10-05T20:56:57.889Z,22.30
2022-10-05T20:59:30.655Z,17.50
2022-10-05T21:02:14.186Z,18.90
2022-10-05T21:04:59.199Z,19.20
2022-10-05T21:07:47.743Z,18.70
2022-10-05T21:10:50.758Z,21.70
2022-10-05T21:13:31.160Z,22.40
2022-10-05T21:16:16.477Z,21.20
2022-10-05T21:18:59.701Z,22.10
2022-10-05T21:21:37.468Z,23.50
2022-10-05T21:24:15.248Z,23.20
2022-10-05T21:26:50.254Z,24.40
2022-10-05T21:29:24.676Z,23.00
2022-10-05T21:32:19.569Z,21.70
2022-10-05T21:34:53.747Z,21.70
2022-10-05T21:37:28.418Z,21.80
2022-10-05T21:40:05.067Z,19.80
2022-10-05T21:42:39.151Z,20.10
2022-10-05T21:45:12.352Z,19.50
2022-10-05T21:47:43.170Z,18.70
2022-10-05T21:50:20.445Z,19.20
2022-10-05T21:52:57.075Z,18.60
2022-10-05T21:55:36.049Z,20.30
2022-10-05T21:58:42.873Z,20.10
2022-10-05T22:01:22.694Z,21.00
2022-10-05T22:04:08.559Z,19.50
2022-10-05T22:06:48.113Z,18.30
2022-10-05T22:09:23.531Z,19.00
2022-10-05T22:11:53.011Z,16.00
2022-10-05T22:20:56.774Z,19.90
2022-10-05T22:23:26.194Z,17.40
2022-10-05T22:25:55.247Z,16.60
2022-10-05T22:28:24.292Z,14.80
2022-10-05T22:30:53.463Z,14.30
2022-10-05T22:33:22.399Z,16.80
2022-10-05T22:35:51.829Z,12.90
2022-10-05T22:38:24.017Z,15.70
2022-10-05T22:40:55.211Z,13.30
2022-10-05T22:43:27.174Z,15.20
2022-10-05T22:53:42.115Z,10.90
2022-10-05T22:56:13.805Z,11.50
2022-10-05T22:58:44.499Z,11.00
2022-10-05T23:01:18.274Z,9.20
2022-10-05T23:03:47.820Z,8.60
2022-10-05T23:06:21.336Z,9.60
2022-10-05T23:08:50.570Z,9.40
2022-10-05T23:11:25.117Z,8.90
2022-10-05T23:13:57.023Z,8.10
2022-10-05T23:18:59.340Z,8.20
2022-10-05T23:21:30.600Z,9.70
2022-10-05T23:23:59.481Z,8.20
2022-10-05T23:26:28.237Z,8.00
2022-10-05T23:28:57.168Z,8.50
2022-10-05T23:31:30.041Z,7.20
2022-10-05T23:33:58.789Z,7.40
2022-10-05T23:36:32.375Z,6.50
2022-10-05T23:39:01.356Z,8.00
2022-10-05T23:41:30.139Z,7.40
2022-10-05T23:43:58.984Z,7.30
2022-10-05T23:46:27.919Z,7.20
2022-10-05T23:48:56.740Z,7.00
2022-10-05T23:51:25.543Z,7.60
2022-10-05T23:53:54.506Z,7.20
2022-10-05T23:56:23.348Z,7.70
2022-10-05T23:58:52.502Z,7.10
